Wetterdaten: aktuell Donnerstag, 27.02.2020 07:44
Datum Zeit Temp. A. Boden 1m Boden 0,5 Feuchte A. Luftdruck Regen Wind Richtung Richtung Sonnenschein Helligkeit Solar Taupunkt Windchill
27.02.2020 07:44 1,2 C 6,5 C 5,8 C 83 % 1007 hPa 0,0 l/m 6,8 km/h (2 Bft) N 355 0 min 1,05 klux 2 W/m -1,4 C -0,9 C
27.02.2020 07:39 1,2 C 6,5 C 5,8 C 83 % 1007 hPa 0,0 l/m 5,2 km/h (1 Bft) N 355 0 min 628 lux 1 W/m -1,4 C -0,3 C
27.02.2020 07:34 1,2 C 6,5 C 5,8 C 83 % 1007 hPa 0,0 l/m 8,5 km/h (2 Bft) N22.5 360 0 min 830 lux 1 W/m -1,4 C -1,5 C
27.02.2020 07:29 1,2 C 6,5 C 5,8 C 83 % 1007 hPa 0,0 l/m 7,1 km/h (2 Bft) N22.5 355 0 min 842 lux 1 W/m -1,4 C -1,0 C
27.02.2020 07:24 1,2 C 6,5 C 5,8 C 84 % 1007 hPa 0,0 l/m 9,5 km/h (2 Bft) N 355 0 min 619 lux 1 W/m -1,2 C -1,8 C
27.02.2020 07:19 1,1 C 6,5 C 5,8 C 84 % 1007 hPa 0,0 l/m 9,0 km/h (2 Bft) N 355 0 min 633 lux 1 W/m -1,3 C -1,7 C
27.02.2020 07:14 1,1 C 6,5 C 5,8 C 84 % 1007 hPa 0,0 l/m 6,4 km/h (2 Bft) N 355 0 min 401 lux 0 W/m -1,3 C -0,9 C
27.02.2020 07:09 1,1 C 6,5 C 5,8 C 84 % 1007 hPa 0,0 l/m 7,3 km/h (2 Bft) N 355 0 min 304 lux 0 W/m -1,3 C -1,2 C
27.02.2020 07:04 1,1 C 6,5 C 5,8 C 84 % 1007 hPa 0,0 l/m 15,5 km/h (3 Bft) N 355 0 min 124 lux 0 W/m -1,3 C -3,1 C
27.02.2020 06:58 1,1 C 6,5 C 5,8 C 84 % 1007 hPa 0,0 l/m 5,0 km/h (1 Bft) N 355 0 min 124 lux 0 W/m -1,3 C -0,3 C
27.02.2020 06:59 1,1 C 6,5 C 5,8 C 84 % 1007 hPa 0,0 l/m 5,0 km/h (1 Bft) N 355 0 min 124 lux 0 W/m -1,3 C -0,3 C
27.02.2020 06:54 1,1 C 6,5 C 5,8 C 84 % 1007 hPa 0,0 l/m 8,1 km/h (2 Bft) N 355 0 min 60 lux 0 W/m -1,3 C -1,5 C
27.02.2020 06:53 1,1 C 6,5 C 5,8 C 84 % 1007 hPa 0,0 l/m 8,1 km/h (2 Bft) N 355 0 min 60 lux 0 W/m -1,3 C -1,5 C
27.02.2020 06:49 1,1 C 6,5 C 5,8 C 83 % 1007 hPa 0,0 l/m 11,2 km/h (2 Bft) N 355 0 min 0 lux 0 W/m -1,5 C -2,3 C
27.02.2020 06:48 1,1 C 6,5 C 5,8 C 83 % 1007 hPa 0,0 l/m 11,2 km/h (2 Bft) N 355 0 min 0 lux 0 W/m -1,5 C -2,3 C
27.02.2020 06:49 1,1 C 6,5 C 5,8 C 83 % 1007 hPa 0,0 l/m 11,2 km/h (2 Bft) N 355 0 min 0 lux 0 W/m -1,5 C -2,3 C
27.02.2020 06:44 1,1 C 6,5 C 5,8 C 83 % 1007 hPa 0,0 l/m 13,7 km/h (3 Bft) N 355 0 min 0 lux 0 W/m -1,5 C -2,8 C
27.02.2020 06:39 1,1 C 6,5 C 5,8 C 83 % 1007 hPa 0,0 l/m 14,1 km/h (3 Bft) N45 360 0 min 0 lux 0 W/m -1,5 C -2,9 C
27.02.2020 06:34 1,0 C 6,5 C 5,8 C 83 % 1007 hPa 0,0 l/m 16,5 km/h (3 Bft) N 355 0 min 0 lux 0 W/m -1,6 C -3,4 C
27.02.2020 06:29 1,0 C 6,5 C 5,8 C 84 % 1007 hPa 0,0 l/m 17,1 km/h (3 Bft) N22.5 355 0 min 0 lux 0 W/m -1,4 C -3,5 C
27.02.2020 06:24 1,0 C 6,5 C 5,8 C 84 % 1007 hPa 0,0 l/m 14,5 km/h (3 Bft) N 355 0 min 0 lux 0 W/m -1,4 C -3,1 C
27.02.2020 06:19 1,0 C 6,5 C 5,8 C 84 % 1007 hPa 0,0 l/m 14,5 km/h (3 Bft) N 355 0 min 0 lux 0 W/m -1,4 C -3,1 C
27.02.2020 06:14 1,0 C 6,5 C 5,8 C 84 % 1007 hPa 0,0 l/m 13,2 km/h (3 Bft) N 360 0 min 0 lux 0 W/m -1,4 C -2,8 C
27.02.2020 06:09 1,0 C 6,5 C 5,8 C 85 % 1007 hPa 0,0 l/m 13,2 km/h (3 Bft) N 360 0 min 0 lux 0 W/m -1,2 C -2,8 C
27.02.2020 06:04 1,0 C 6,5 C 5,8 C 85 % 1007 hPa 0,0 l/m 13,2 km/h (3 Bft) N 360 0 min 0 lux 0 W/m -1,2 C -2,8 C
27.02.2020 05:59 1,0 C 6,5 C 5,8 C 85 % 1006 hPa 0,0 l/m 13,2 km/h (3 Bft) N 360 0 min 0 lux 0 W/m -1,2 C -2,8 C
27.02.2020 05:54 1,0 C 6,5 C 5,8 C 86 % 1006 hPa 0,0 l/m 15,9 km/h (3 Bft) N 355 0 min 0 lux 0 W/m -1,1 C -3,3 C
27.02.2020 05:49 0,9 C 6,5 C 5,8 C 86 % 1006 hPa 0,0 l/m 19,8 km/h (3 Bft) N 355 0 min 0 lux 0 W/m -1,2 C -4,1 C
27.02.2020 05:44 0,9 C 6,5 C 5,8 C 86 % 1007 hPa 0,0 l/m 13,1 km/h (3 Bft) N22.5 355 0 min 0 lux 0 W/m -1,2 C -2,9 C
27.02.2020 05:38 0,8 C 6,5 C 5,8 C 87 % 1007 hPa 0,0 l/m 12,0 km/h (2 Bft) N22.5 355 0 min 0 lux 0 W/m -1,1 C -2,8 C
27.02.2020 05:39 0,8 C 6,5 C 5,8 C 87 % 1007 hPa 0,0 l/m 12,0 km/h (2 Bft) N22.5 355 0 min 0 lux 0 W/m -1,1 C -2,8 C
27.02.2020 05:34 0,8 C 6,5 C 5,8 C 86 % 1007 hPa 0,0 l/m 12,0 km/h (2 Bft) N22.5 355 0 min 0 lux 0 W/m -1,3 C -2,8 C
27.02.2020 05:28 0,8 C 6,5 C 5,9 C 86 % 1007 hPa 0,0 l/m 10,3 km/h (2 Bft) N 355 0 min 0 lux 0 W/m -1,3 C -2,4 C
27.02.2020 05:24 0,8 C 6,5 C 5,8 C 85 % 1007 hPa 0,0 l/m 5,0 km/h (1 Bft) N 355 0 min 0 lux 0 W/m -1,4 C -0,7 C
27.02.2020 05:19 0,8 C 6,5 C 5,9 C 85 % 1007 hPa 0,0 l/m 7,8 km/h (2 Bft) N 355 0 min 0 lux 0 W/m -1,4 C -1,7 C
27.02.2020 05:14 0,8 C 6,6 C 5,9 C 85 % 1006 hPa 0,0 l/m 0,6 km/h (0 Bft) N 355 0 min 0 lux 0 W/m -1,4 C 0,8 C
27.02.2020 05:09 0,9 C 6,5 C 5,9 C 85 % 1006 hPa 0,0 l/m 6,5 km/h (2 Bft) N 355 0 min 0 lux 0 W/m -1,3 C -1,2 C
27.02.2020 05:04 1,0 C 6,5 C 5,9 C 85 % 1006 hPa 0,0 l/m 9,7 km/h (2 Bft) N22.5 360 0 min 0 lux 0 W/m -1,2 C -2,0 C
27.02.2020 04:59 1,1 C 6,5 C 5,9 C 85 % 1006 hPa 0,0 l/m 21,8 km/h (4 Bft) N22.5 355 0 min 0 lux 0 W/m -1,1 C -4,1 C
27.02.2020 04:54 1,2 C 6,5 C 5,8 C 84 % 1006 hPa 0,0 l/m 14,1 km/h (3 Bft) N 355 0 min 0 lux 0 W/m -1,2 C -2,8 C
27.02.2020 04:49 1,4 C 6,5 C 5,8 C 84 % 1006 hPa 0,0 l/m 14,1 km/h (3 Bft) N 355 0 min 0 lux 0 W/m -1,0 C -2,5 C
27.02.2020 04:44 1,4 C 6,5 C 5,9 C 83 % 1006 hPa 0,0 l/m 15,5 km/h (3 Bft) N 355 0 min 0 lux 0 W/m -1,2 C -2,8 C
27.02.2020 04:39 1,4 C 6,5 C 5,9 C 83 % 1006 hPa 0,0 l/m 16,0 km/h (3 Bft) N 355 0 min 0 lux 0 W/m -1,2 C -2,9 C
27.02.2020 04:34 1,4 C 6,5 C 5,9 C 82 % 1006 hPa 0,0 l/m 18,8 km/h (3 Bft) N 355 0 min 0 lux 0 W/m -1,3 C -3,3 C
27.02.2020 04:29 1,4 C 6,5 C 5,9 C 81 % 1006 hPa 0,0 l/m 9,9 km/h (2 Bft) N 355 0 min 0 lux 0 W/m -1,5 C -1,6 C
27.02.2020 04:24 1,5 C 6,5 C 5,9 C 81 % 1006 hPa 0,0 l/m 14,3 km/h (3 Bft) N 355 0 min 0 lux 0 W/m -1,4 C -2,4 C
27.02.2020 04:19 1,6 C 6,5 C 5,9 C 80 % 1006 hPa 0,0 l/m 2,9 km/h (1 Bft) N 355 0 min 0 lux 0 W/m -1,5 C 1,6 C
27.02.2020 04:14 1,7 C 6,5 C 5,9 C 80 % 1006 hPa 0,0 l/m 2,9 km/h (1 Bft) N 355 0 min 0 lux 0 W/m -1,4 C 1,7 C
27.02.2020 04:09 1,7 C 6,5 C 5,9 C 80 % 1006 hPa 0,0 l/m 20,7 km/h (4 Bft) N22.5 355 0 min 0 lux 0 W/m -1,4 C -3,2 C
27.02.2020 04:04 1,9 C 6,5 C 5,8 C 78 % 1006 hPa 0,0 l/m 26,5 km/h (4 Bft) N 355 0 min 0 lux 0 W/m -1,5 C -3,6 C
27.02.2020 03:59 2,0 C 6,5 C 5,9 C 78 % 1006 hPa 0,0 l/m 17,8 km/h (3 Bft) N22.5 355 0 min 0 lux 0 W/m -1,4 C -2,4 C
27.02.2020 03:58 2,0 C 6,5 C 5,9 C 78 % 1006 hPa 0,0 l/m 17,8 km/h (3 Bft) N22.5 355 0 min 0 lux 0 W/m -1,4 C -2,4 C
27.02.2020 03:54 2,0 C 6,5 C 5,9 C 77 % 1006 hPa 0,0 l/m 13,1 km/h (3 Bft) N 355 0 min 0 lux 0 W/m -1,6 C -1,6 C
27.02.2020 03:49 2,0 C 6,5 C 5,9 C 77 % 1006 hPa 0,3 l/m 19,5 km/h (3 Bft) N22.5 355 0 min 0 lux 0 W/m -1,6 C -2,6 C
27.02.2020 03:44 2,0 C 6,5 C 5,9 C 77 % 1006 hPa 0,0 l/m 21,2 km/h (4 Bft) N 355 0 min 0 lux 0 W/m -1,6 C -2,9 C
27.02.2020 03:39 2,0 C 6,6 C 5,9 C 77 % 1006 hPa 0,0 l/m 14,6 km/h (3 Bft) N 355 0 min 0 lux 0 W/m -1,6 C -1,9 C
27.02.2020 03:34 2,0 C 6,5 C 5,9 C 77 % 1006 hPa 0,0 l/m 16,8 km/h (3 Bft) N 355 0 min 0 lux 0 W/m -1,6 C -2,2 C
27.02.2020 03:29 2,0 C 6,5 C 5,9 C 77 % 1006 hPa 0,0 l/m 22,0 km/h (4 Bft) N22.5 355 0 min 0 lux 0 W/m -1,6 C -3,0 C
27.02.2020 03:24 2,0 C 6,5 C 5,9 C 77 % 1006 hPa 0,0 l/m 14,5 km/h (3 Bft) N22.5 360 0 min 0 lux 0 W/m -1,6 C -1,9 C
27.02.2020 03:19 2,0 C 6,5 C 5,9 C 77 % 1006 hPa 0,0 l/m 16,3 km/h (3 Bft) N 355 0 min 0 lux 0 W/m -1,6 C -2,2 C
27.02.2020 03:14 2,0 C 6,5 C 5,9 C 77 % 1006 hPa 0,0 l/m 24,2 km/h (4 Bft) N 355 0 min 0 lux 0 W/m -1,6 C -3,2 C
27.02.2020 03:09 2,0 C 6,5 C 6,0 C 77 % 1006 hPa 0,0 l/m 21,5 km/h (4 Bft) N 355 0 min 0 lux 0 W/m -1,6 C -2,9 C
27.02.2020 03:04 2,0 C 6,5 C 6,0 C 77 % 1006 hPa 0,0 l/m 15,5 km/h (3 Bft) N 360 0 min 0 lux 0 W/m -1,6 C -2,0 C
27.02.2020 02:59 2,0 C 6,5 C 6,0 C 77 % 1006 hPa 0,0 l/m 15,5 km/h (3 Bft) N 360 0 min 0 lux 0 W/m -1,6 C -2,0 C
27.02.2020 02:54 1,9 C 6,5 C 5,9 C 77 % 1006 hPa 0,0 l/m 15,5 km/h (3 Bft) N 360 0 min 0 lux 0 W/m -1,7 C -2,2 C
27.02.2020 02:49 2,0 C 6,5 C 6,0 C 77 % 1006 hPa 0,0 l/m 17,4 km/h (3 Bft) N 355 0 min 0 lux 0 W/m -1,6 C -2,3 C
27.02.2020 02:44 1,9 C 6,6 C 5,9 C 77 % 1006 hPa 0,0 l/m 20,6 km/h (4 Bft) N22.5 360 0 min 0 lux 0 W/m -1,7 C -2,9 C
27.02.2020 02:39 1,9 C 6,6 C 5,9 C 78 % 1006 hPa 0,0 l/m 19,1 km/h (3 Bft) N22.5 360 0 min 0 lux 0 W/m -1,5 C -2,7 C
27.02.2020 02:34 1,9 C 6,5 C 5,9 C 78 % 1006 hPa 0,0 l/m 12,5 km/h (3 Bft) N22.5 355 0 min 0 lux 0 W/m -1,5 C -1,6 C
27.02.2020 02:29 1,9 C 6,5 C 5,9 C 78 % 1006 hPa 0,0 l/m 11,3 km/h (2 Bft) N 355 0 min 0 lux 0 W/m -1,5 C -1,3 C
27.02.2020 02:24 1,9 C 6,5 C 5,9 C 79 % 1006 hPa 0,0 l/m 13,3 km/h (3 Bft) N 355 0 min 0 lux 0 W/m -1,3 C -1,8 C
27.02.2020 02:19 1,9 C 6,5 C 6,0 C 79 % 1006 hPa 0,0 l/m 12,1 km/h (2 Bft) N 355 0 min 0 lux 0 W/m -1,3 C -1,5 C
27.02.2020 02:14 1,9 C 6,5 C 6,0 C 79 % 1006 hPa 0,0 l/m 19,3 km/h (3 Bft) N 355 0 min 0 lux 0 W/m -1,3 C -2,7 C
27.02.2020 02:09 1,8 C 6,5 C 6,0 C 79 % 1006 hPa 0,0 l/m 19,3 km/h (3 Bft) N 355 0 min 0 lux 0 W/m -1,4 C -2,9 C
27.02.2020 02:04 1,9 C 6,5 C 6,0 C 79 % 1006 hPa 0,0 l/m 19,3 km/h (3 Bft) N 355 0 min 0 lux 0 W/m -1,3 C -2,7 C
27.02.2020 01:59 1,9 C 6,5 C 6,0 C 79 % 1006 hPa 0,0 l/m 19,3 km/h (3 Bft) N 355 0 min 0 lux 0 W/m -1,3 C -2,7 C
27.02.2020 01:54 1,9 C 6,6 C 6,0 C 80 % 1006 hPa 0,0 l/m 13,5 km/h (3 Bft) N 355 0 min 0 lux 0 W/m -1,2 C -1,8 C
27.02.2020 01:49 1,9 C 6,5 C 6,0 C 80 % 1006 hPa 0,0 l/m 15,8 km/h (3 Bft) N 355 0 min 0 lux 0 W/m -1,2 C -2,2 C
27.02.2020 01:43 1,9 C 6,5 C 6,0 C 80 % 1006 hPa 0,0 l/m 10,9 km/h (2 Bft) N 355 0 min 0 lux 0 W/m -1,2 C -1,3 C
27.02.2020 01:39 1,9 C 6,5 C 6,0 C 80 % 1006 hPa 0,0 l/m 11,4 km/h (2 Bft) N 355 0 min 0 lux 0 W/m -1,2 C -1,4 C
27.02.2020 01:34 1,8 C 6,5 C 6,0 C 80 % 1006 hPa 0,0 l/m 11,4 km/h (2 Bft) N 355 0 min 0 lux 0 W/m -1,3 C -1,5 C
27.02.2020 01:29 1,8 C 6,6 C 6,0 C 80 % 1006 hPa 0,0 l/m 19,5 km/h (3 Bft) N 355 0 min 0 lux 0 W/m -1,3 C -2,9 C
27.02.2020 01:24 1,9 C 6,5 C 6,0 C 80 % 1006 hPa 0,0 l/m 17,2 km/h (3 Bft) N 355 0 min 0 lux 0 W/m -1,2 C -2,4 C
27.02.2020 01:19 1,8 C 6,6 C 6,0 C 80 % 1006 hPa 0,0 l/m 19,5 km/h (3 Bft) N22.5 355 0 min 0 lux 0 W/m -1,3 C -2,9 C
27.02.2020 01:14 1,8 C 6,6 C 6,0 C 80 % 1006 hPa 0,0 l/m 12,8 km/h (3 Bft) N 355 0 min 0 lux 0 W/m -1,3 C -1,8 C
27.02.2020 01:09 1,9 C 6,5 C 6,0 C 80 % 1006 hPa 0,0 l/m 14,5 km/h (3 Bft) N 355 0 min 0 lux 0 W/m -1,2 C -2,0 C
27.02.2020 01:08 1,9 C 6,5 C 6,0 C 80 % 1006 hPa 0,0 l/m 14,5 km/h (3 Bft) N 355 0 min 0 lux 0 W/m -1,2 C -2,0 C
27.02.2020 01:03 1,9 C 6,5 C 6,0 C 80 % 1006 hPa 0,0 l/m 12,4 km/h (3 Bft) N45 360 0 min 0 lux 0 W/m -1,2 C -1,6 C
27.02.2020 01:04 1,9 C 6,5 C 6,0 C 80 % 1006 hPa 0,0 l/m 12,4 km/h (3 Bft) N45 360 0 min 0 lux 0 W/m -1,2 C -1,6 C
27.02.2020 00:59 1,9 C 6,6 C 6,0 C 80 % 1006 hPa 0,0 l/m 16,3 km/h (3 Bft) N 355 0 min 0 lux 0 W/m -1,2 C -2,3 C
27.02.2020 00:54 1,9 C 6,5 C 6,0 C 80 % 1005 hPa 0,0 l/m 16,0 km/h (3 Bft) N22.5 355 0 min 0 lux 0 W/m -1,2 C -2,2 C
27.02.2020 00:53 1,9 C 6,5 C 6,0 C 80 % 1005 hPa 0,0 l/m 16,0 km/h (3 Bft) N22.5 355 0 min 0 lux 0 W/m -1,2 C -2,2 C
27.02.2020 00:49 1,9 C 6,5 C 6,0 C 80 % 1005 hPa 0,0 l/m 16,7 km/h (3 Bft) N 355 0 min 0 lux 0 W/m -1,2 C -2,4 C
27.02.2020 00:44 1,9 C 6,6 C 6,0 C 80 % 1005 hPa 0,0 l/m 14,5 km/h (3 Bft) N22.5 355 0 min 0 lux 0 W/m -1,2 C -2,0 C
27.02.2020 00:38 1,9 C 6,5 C 6,0 C 80 % 1005 hPa 0,0 l/m 9,6 km/h (2 Bft) N 355 0 min 0 lux 0 W/m -1,2 C -0,9 C
27.02.2020 00:39 1,9 C 6,5 C 6,0 C 80 % 1005 hPa 0,0 l/m 9,6 km/h (2 Bft) N 355 0 min 0 lux 0 W/m -1,2 C -0,9 C
27.02.2020 00:34 1,9 C 6,5 C 6,0 C 81 % 1005 hPa 0,0 l/m 14,1 km/h (3 Bft) N 355 0 min 0 lux 0 W/m -1,0 C -1,9 C
27.02.2020 00:28 1,9 C 6,5 C 6,0 C 81 % 1005 hPa 0,0 l/m 14,1 km/h (3 Bft) N 355 0 min 0 lux 0 W/m -1,0 C -1,9 C
27.02.2020 00:24 1,9 C 6,5 C 6,0 C 81 % 1005 hPa 0,0 l/m 8,7 km/h (2 Bft) N 355 0 min 0 lux 0 W/m -1,0 C -0,7 C
27.02.2020 00:19 1,9 C 6,5 C 6,0 C 81 % 1005 hPa 0,0 l/m 8,7 km/h (2 Bft) N 355 0 min 0 lux 0 W/m -1,0 C -0,7 C
27.02.2020 00:14 1,9 C 6,5 C 6,0 C 81 % 1005 hPa 0,0 l/m 12,3 km/h (3 Bft) N 355 0 min 0 lux 0 W/m -1,0 C -1,6 C
27.02.2020 00:09 1,9 C 6,5 C 6,0 C 81 % 1005 hPa 0,0 l/m 14,7 km/h (3 Bft) N 355 0 min 0 lux 0 W/m -1,0 C -2,0 C
27.02.2020 00:04 1,9 C 6,6 C 6,0 C 81 % 1005 hPa 0,0 l/m 12,1 km/h (2 Bft) N 355 0 min 0 lux 0 W/m -1,0 C -1,5 C
_ Min-Zeit 05:14 00:09 04:04 02:44 00:04 - 05:14 - - - - - 02:44 04:59
Minimum _ 0,8 C 6,5 C 5,8 C 77 % 1005 hPa - 0,6 km/h (0 Bft) - - - - - -1,7 C -4,1 C
_ Max-Zeit 02:49 00:04 00:04 05:39 05:19 03:49 04:04 - - 00:04 07:44 07:44 04:49 04:14
Maximum _ 2,0 C 6,6 C 6,0 C 87 % 1007 hPa 0,3 l/m 26,5 km/h
N (4 Bft)
- - 0 min 1,05 klux 2 W/m -1,0 C 1,7 C
Durchschnitt _ 1,5 C 6,5 C 5,9 C 81 % 1006 hPa #0,3 l/m 13,8 km/h (3 Bft) N - #0 min. 0,061 klux 1 W/m -1,3 C -2,1 C